Time;durP1;ratioP1;P1;durP2;ratioP2;P2;SDS_P1;SDS_P2;PMS_P1;PMS_P2;Temp;Humidity;BMP_temperature;BMP_pressure;BME280_temperature;BME280_humidity;BME280_pressure;Samples;Min_cycle;Max_cycle;Signal;HPM_P1;HPM_P2
2023/02/11 00:01:56;;;;;;;51.55;44.88;;;27.20;94.30;;;;;;1864384;77;21112;-85
2023/02/11 00:04:26;;;;;;;58.15;48.15;;;27.10;94.80;;;;;;1864068;77;21100;-85
2023/02/11 00:06:57;;;;;;;54.00;44.98;;;27.10;94.50;;;;;;1864023;77;21092;-84
2023/02/11 00:09:28;;;;;;;52.40;44.25;;;27.00;95.00;;;;;;1863976;77;21096;-85
2023/02/11 00:12:00;;;;;;;55.12;46.40;;;27.00;94.60;;;;;;1864379;77;21166;-85
2023/02/11 00:14:31;;;;;;;52.73;44.23;;;27.00;94.70;;;;;;1866053;77;21073;-84
2023/02/11 00:17:01;;;;;;;49.85;43.15;;;26.90;94.60;;;;;;1865289;77;21147;-84
2023/02/11 00:19:32;;;;;;;49.10;43.58;;;26.90;94.70;;;;;;1864750;77;21154;-85
2023/02/11 00:22:03;;;;;;;50.45;44.98;;;26.90;94.70;;;;;;1864378;77;21097;-86
2023/02/11 00:24:34;;;;;;;53.87;44.35;;;27.00;94.60;;;;;;1864329;77;21096;-85
2023/02/11 00:27:05;;;;;;;51.73;44.93;;;26.90;94.60;;;;;;1864239;77;21096;-83
2023/02/11 00:29:36;;;;;;;52.17;44.38;;;26.90;94.60;;;;;;1864214;77;21136;-84
2023/02/11 00:32:07;;;;;;;54.73;44.10;;;26.90;94.60;;;;;;1861898;77;21105;-84
2023/02/11 00:34:38;;;;;;;56.13;43.73;;;27.00;94.60;;;;;;1860883;77;21567;-73
2023/02/11 00:37:10;;;;;;;56.68;44.45;;;27.00;94.50;;;;;;1858505;77;21605;-76
2023/02/11 00:39:41;;;;;;;51.20;43.45;;;27.00;94.50;;;;;;1850140;77;21067;-76
2023/02/11 00:42:14;;;;;;;56.73;43.52;;;26.90;94.60;;;;;;1831724;78;21197;-76
2023/02/11 00:44:46;;;;;;;55.40;44.20;;;27.00;94.60;;;;;;1829059;77;21197;-76
2023/02/11 00:47:16;;;;;;;59.00;44.55;;;27.00;95.00;;;;;;1861827;77;21134;-75
2023/02/11 00:49:47;;;;;;;52.48;45.23;;;26.90;94.50;;;;;;1836192;77;21189;-78
2023/02/11 00:52:18;;;;;;;50.48;43.63;;;27.00;94.50;;;;;;1842106;77;21145;-74
2023/02/11 00:54:49;;;;;;;51.77;44.18;;;27.00;94.50;;;;;;1853592;76;21216;-74
2023/02/11 00:57:20;;;;;;;49.40;42.05;;;27.00;94.50;;;;;;1854528;77;21048;-74
2023/02/11 00:59:51;;;;;;;57.03;44.58;;;27.00;94.50;;;;;;1849761;76;21129;-74
2023/02/11 01:02:22;;;;;;;60.00;46.25;;;27.00;94.50;;;;;;1844881;77;21776;-75
2023/02/11 01:04:52;;;;;;;54.93;44.63;;;27.10;94.50;;;;;;1847984;77;21177;-71
2023/02/11 01:07:23;;;;;;;57.62;47.88;;;27.10;94.50;;;;;;1814768;77;21105;-72
2023/02/11 01:09:54;;;;;;;59.55;49.13;;;27.10;94.60;;;;;;1793559;79;21693;-73
2023/02/11 01:12:25;;;;;;;49.75;44.42;;;27.10;94.70;;;;;;1780135;79;21197;-72
2023/02/11 01:14:56;;;;;;;59.63;47.30;;;27.10;94.40;;;;;;1835269;76;22194;-73
2023/02/11 01:17:28;;;;;;;57.60;45.80;;;27.20;95.20;;;;;;1831743;77;21091;-73
2023/02/11 01:19:59;;;;;;;65.12;48.20;;;27.20;95.30;;;;;;1831377;78;21102;-75
2023/02/11 01:22:30;;;;;;;56.25;46.73;;;27.20;95.30;;;;;;1832302;77;21134;-74
2023/02/11 01:25:01;;;;;;;59.23;48.55;;;27.20;95.30;;;;;;1832041;77;21543;-75
2023/02/11 01:27:32;;;;;;;65.87;47.80;;;27.30;95.30;;;;;;1838232;77;21895;-74
2023/02/11 01:30:05;;;;;;;57.05;45.98;;;27.40;95.30;;;;;;1815959;78;21106;-74
2023/02/11 01:32:36;;;;;;;55.48;46.95;;;27.40;95.30;;;;;;1812914;78;21162;-75
2023/02/11 01:35:08;;;;;;;57.03;47.67;;;27.50;95.30;;;;;;1805605;78;21129;-75
2023/02/11 01:37:39;;;;;;;53.05;43.85;;;27.50;95.20;;;;;;1805139;78;21156;-74
2023/02/11 01:40:13;;;;;;;52.40;44.18;;;27.60;95.10;;;;;;1790040;78;21187;-75
2023/02/11 01:42:44;;;;;;;55.60;46.45;;;27.70;95.10;;;;;;1815849;77;21103;-75
2023/02/11 01:45:41;;;;;;;52.73;45.43;;;27.80;94.70;;;;;;1792520;78;21175;-77
2023/02/11 01:48:14;;;;;;;50.90;45.15;;;27.70;94.40;;;;;;1798467;79;21095;-77
2023/02/11 01:50:47;;;;;;;53.35;46.23;;;27.70;94.20;;;;;;1804545;79;21169;-77
2023/02/11 01:59:00;;;;;;;55.88;45.17;;;27.70;94.10;;;;;;1779535;80;21186;-76
2023/02/11 02:01:34;;;;;;;57.98;46.90;;;27.80;94.20;;;;;;1795931;78;21157;-75
2023/02/11 02:04:07;;;;;;;52.88;46.77;;;27.80;94.10;;;;;;1829376;77;21091;-76
2023/02/11 02:06:46;;;;;;;57.30;47.35;;;27.80;94.00;;;;;;1810913;78;21259;-76
2023/02/11 02:09:29;;;;;;;48.85;43.25;;;28.00;94.00;;;;;;1795876;79;21177;-76
2023/02/11 02:12:02;;;;;;;58.23;48.50;;;27.90;94.10;;;;;;1784714;79;21174;-77
2023/02/11 02:14:35;;;;;;;56.92;48.52;;;28.00;94.10;;;;;;1788636;79;21100;-76
2023/02/11 02:17:08;;;;;;;56.10;48.35;;;28.10;94.00;;;;;;1786667;79;21105;-76
2023/02/11 02:19:57;;;;;;;58.63;48.28;;;28.00;93.70;;;;;;1822761;78;21139;-75
2023/02/11 02:22:49;;;;;;;63.28;47.48;;;28.00;93.70;;;;;;1828155;78;21133;-77
2023/02/11 02:25:31;;;;;;;53.95;45.95;;;28.10;93.80;;;;;;1803259;79;21270;-75
2023/02/11 02:28:20;;;;;;;52.58;45.60;;;28.10;93.60;;;;;;1792083;77;21119;-76
2023/02/11 02:31:14;;;;;;;58.68;46.92;;;28.10;93.40;;;;;;1834365;77;21203;-76
2023/02/11 02:33:57;;;;;;;54.58;48.05;;;28.30;93.50;;;;;;1841242;76;21176;-76
2023/02/11 02:36:46;;;;;;;63.02;49.98;;;28.30;93.50;;;;;;1867230;77;21097;-77
2023/02/11 02:39:22;;;;;;;59.13;50.12;;;28.20;93.50;;;;;;1837854;76;21118;-77
2023/02/11 02:41:53;;;;;;;;;;;28.20;93.60;;;;;;1816443;77;21532;-76
2023/02/11 02:44:24;;;;;;;53.83;46.13;;;28.30;93.60;;;;;;1868640;75;20121;-78
2023/02/11 02:46:55;;;;;;;50.45;43.50;;;28.40;93.60;;;;;;1860201;77;21139;-77
2023/02/11 02:49:26;;;;;;;52.75;45.65;;;28.50;93.50;;;;;;1893006;75;21151;-77
2023/02/11 02:52:22;;;;;;;57.60;46.35;;;28.60;93.40;;;;;;1833857;76;21183;-78
2023/02/11 02:54:54;;;;;;;;;;;28.40;93.30;;;;;;1869602;77;21496;-77
2023/02/11 02:57:51;;;;;;;53.20;47.08;;;28.50;93.30;;;;;;1859460;75;20133;-76
2023/02/11 03:00:28;;;;;;;57.70;47.17;;;28.70;93.20;;;;;;1833495;78;21167;-74
2023/02/11 03:03:11;;;;;;;51.08;45.30;;;28.70;93.40;;;;;;1801957;79;21206;-75
2023/02/11 03:05:57;;;;;;;54.65;45.90;;;28.60;93.00;;;;;;1863806;76;21180;-77
2023/02/11 03:08:36;;;;;;;53.52;46.58;;;28.90;92.90;;;;;;1832791;77;21184;-74
2023/02/11 03:11:09;;;;;;;49.05;43.60;;;28.80;92.40;;;;;;1807805;78;21586;-75
2023/02/11 03:13:45;;;;;;;57.60;43.55;;;28.80;92.50;;;;;;1839166;75;21147;-77
2023/02/11 03:16:21;;;;;;;48.17;41.53;;;28.90;92.60;;;;;;1842330;75;21096;-75
2023/02/11 03:18:55;;;;;;;49.38;43.92;;;29.10;92.30;;;;;;1849823;77;21060;-76
2023/02/11 03:21:27;;;;;;;46.33;41.23;;;29.10;92.30;;;;;;1837065;77;21069;-76
2023/02/11 03:24:00;;;;;;;49.18;42.67;;;29.10;92.00;;;;;;1824787;79;21133;-76
2023/02/11 03:26:46;;;;;;;52.33;42.90;;;29.20;91.80;;;;;;1828658;77;21151;-75
2023/02/11 03:29:25;;;;;;;49.03;40.83;;;29.30;91.70;;;;;;1831489;77;21090;-75
2023/02/11 03:32:17;;;;;;;47.55;37.55;;;29.40;91.70;;;;;;1837131;76;21076;-76
2023/02/11 03:34:51;;;;;;;47.15;36.03;;;29.50;91.50;;;;;;1799069;78;21205;-75
2023/02/11 03:37:33;;;;;;;41.53;34.92;;;29.50;91.30;;;;;;1842514;76;21137;-75
2023/02/11 03:40:10;;;;;;;36.77;31.17;;;29.60;90.90;;;;;;1842598;78;21151;-76
2023/02/11 03:42:56;;;;;;;39.23;33.50;;;29.70;89.80;;;;;;1842165;78;21619;-77
2023/02/11 03:45:28;;;;;;;41.08;35.20;;;29.70;90.10;;;;;;1844433;75;21100;-77
2023/02/11 03:48:08;;;;;;;44.73;34.50;;;29.80;89.60;;;;;;1872433;76;21178;-76
2023/02/11 03:50:40;;;;;;;43.70;34.43;;;29.90;89.60;;;;;;1834910;78;21100;-76
2023/02/11 03:53:19;;;;;;;35.10;31.33;;;30.00;89.90;;;;;;1871438;75;21186;-76
2023/02/11 03:55:48;;;;;;;35.75;31.73;;;30.20;88.80;;;;;;1859781;76;21088;-79
2023/02/11 03:58:22;;;;;;;38.25;31.07;;;30.30;87.40;;;;;;1847879;76;21496;-77
2023/02/11 04:00:52;;;;;;;32.75;29.27;;;30.30;87.20;;;;;;1835914;76;21208;-76
2023/02/11 04:03:23;;;;;;;34.90;28.80;;;30.50;87.40;;;;;;1868548;75;21092;-78
2023/02/11 04:05:54;;;;;;;34.78;28.12;;;30.40;86.00;;;;;;1866593;76;21145;-77
2023/02/11 04:08:25;;;;;;;33.53;27.70;;;30.60;85.10;;;;;;1863776;75;21087;-77
2023/02/11 04:10:57;;;;;;;31.20;25.50;;;30.60;84.10;;;;;;1869753;76;21099;-74
2023/02/11 04:13:28;;;;;;;31.27;26.70;;;30.70;83.80;;;;;;1866017;75;21147;-76
2023/02/11 04:16:01;;;;;;;31.10;27.27;;;30.80;83.20;;;;;;1870090;75;21201;-77
2023/02/11 04:18:33;;;;;;;35.43;26.20;;;30.80;83.40;;;;;;1866115;75;21567;-78
2023/02/11 04:21:07;;;;;;;27.58;24.77;;;30.90;83.00;;;;;;1849994;76;21189;-77
2023/02/11 04:23:39;;;;;;;31.62;26.02;;;31.00;81.90;;;;;;1831113;76;21226;-76
2023/02/11 04:26:10;;;;;;;27.48;23.98;;;31.10;81.50;;;;;;1840740;77;21159;-76
2023/02/11 04:28:46;;;;;;;33.88;25.00;;;31.10;80.80;;;;;;1835570;76;21630;-75
2023/02/11 04:31:19;;;;;;;25.02;22.35;;;31.20;80.60;;;;;;1853758;75;21089;-76
2023/02/11 04:33:58;;;;;;;28.60;24.55;;;31.30;79.30;;;;;;1872373;75;21123;-77
2023/02/11 04:36:25;;;;;;;30.97;24.72;;;31.30;79.00;;;;;;1864804;76;21098;-77
2023/02/11 04:38:57;;;;;;;28.30;24.82;;;31.50;79.60;;;;;;1848816;75;21188;-75
2023/02/11 04:41:28;;;;;;;29.60;26.27;;;31.60;80.20;;;;;;1832543;77;21237;-75
2023/02/11 04:43:59;;;;;;;28.50;24.98;;;31.70;81.30;;;;;;1834725;76;21179;-76
2023/02/11 04:46:33;;;;;;;29.72;25.77;;;31.80;86.90;;;;;;1797443;77;21586;-76
2023/02/11 04:49:05;;;;;;;33.53;26.48;;;32.00;91.30;;;;;;1831502;76;21086;-77
2023/02/11 04:51:36;;;;;;;31.87;25.55;;;32.10;94.40;;;;;;1832658;76;21714;-77
2023/02/11 04:54:07;;;;;;;29.80;26.20;;;32.30;98.50;;;;;;1863519;75;21144;-78
2023/02/11 04:56:38;;;;;;;28.23;25.15;;;;;;;;;;1862750;75;21136;-77
2023/02/11 04:59:11;;;;;;;29.80;26.75;;;31.80;99.90;;;;;;1839942;76;21185;-76
2023/02/11 05:01:41;;;;;;;29.52;26.27;;;;;;;;;;1823743;76;21139;-76
2023/02/11 05:04:11;;;;;;;28.50;25.48;;;;;;;;;;1852619;75;21187;-78
2023/02/11 05:06:42;;;;;;;29.23;24.12;;;32.50;75.40;;;;;;1858516;76;21250;-77
2023/02/11 05:09:14;;;;;;;33.58;28.47;;;32.60;75.00;;;;;;1855123;76;21151;-78
2023/02/11 05:11:46;;;;;;;27.87;25.00;;;32.60;74.80;;;;;;1853072;76;21098;-78
2023/02/11 05:14:18;;;;;;;29.27;24.98;;;32.50;74.50;;;;;;1863417;76;21172;-79
2023/02/11 05:17:00;;;;;;;31.17;25.85;;;32.50;75.10;;;;;;1847898;76;21552;-78
2023/02/11 05:19:32;;;;;;;27.82;24.10;;;32.60;74.20;;;;;;1851623;76;21248;-77
2023/02/11 05:22:03;;;;;;;26.42;23.47;;;32.70;73.70;;;;;;1850670;76;21064;-77
2023/02/11 05:24:35;;;;;;;25.20;22.52;;;32.70;73.50;;;;;;1863316;75;21052;-78
2023/02/11 05:27:06;;;;;;;27.15;22.30;;;32.80;72.60;;;;;;1840717;77;21086;-75
2023/02/11 05:29:38;;;;;;;28.95;22.00;;;32.80;73.60;;;;;;1835857;76;21650;-75
2023/02/11 05:32:08;;;;;;;30.52;23.57;;;32.90;72.60;;;;;;1824087;77;21237;-77
2023/02/11 05:34:40;;;;;;;25.48;22.30;;;33.00;72.70;;;;;;1855611;76;21147;-76
2023/02/11 05:37:11;;;;;;;27.77;22.50;;;33.10;71.90;;;;;;1868159;75;21080;-76
2023/02/11 05:39:42;;;;;;;27.60;22.67;;;33.20;71.80;;;;;;1876166;75;21096;-85
2023/02/11 05:42:14;;;;;;;23.70;21.30;;;33.10;72.20;;;;;;1867247;75;21663;-86
2023/02/11 05:44:44;;;;;;;27.82;22.40;;;33.10;71.40;;;;;;1872389;75;21155;-87
2023/02/11 05:47:19;;;;;;;25.97;20.85;;;33.10;70.80;;;;;;1856375;76;21092;-85
2023/02/11 05:49:52;;;;;;;25.90;20.52;;;33.20;69.50;;;;;;1849230;75;21092;-86
2023/02/11 05:52:23;;;;;;;22.30;19.45;;;33.20;69.30;;;;;;1870169;75;21120;-84
2023/02/11 05:54:54;;;;;;;22.82;20.43;;;33.20;69.60;;;;;;1856599;77;21133;-86
2023/02/11 05:57:24;;;;;;;23.87;21.05;;;33.20;69.80;;;;;;1849960;77;21097;-84
2023/02/11 05:59:55;;;;;;;23.20;20.70;;;33.30;69.30;;;;;;1845620;77;21134;-85
2023/02/11 06:02:26;;;;;;;21.97;19.70;;;33.30;70.40;;;;;;1868242;77;21130;-85
2023/02/11 06:04:57;;;;;;;25.05;20.32;;;33.40;70.60;;;;;;1843845;76;21245;-85
2023/02/11 06:07:28;;;;;;;23.18;19.92;;;33.50;69.90;;;;;;1850961;76;21623;-86
2023/02/11 06:09:59;;;;;;;26.35;20.32;;;33.60;68.90;;;;;;1824627;76;21510;-86
2023/02/11 06:12:30;;;;;;;24.07;21.37;;;33.60;69.40;;;;;;1837502;77;21070;-86
2023/02/11 06:15:01;;;;;;;22.10;19.75;;;33.60;69.00;;;;;;1832971;77;21141;-85
2023/02/11 06:17:32;;;;;;;25.08;20.80;;;33.60;69.30;;;;;;1834593;77;21180;-85
2023/02/11 06:20:07;;;;;;;24.02;21.42;;;33.60;70.40;;;;;;1834005;78;21211;-87
2023/02/11 06:22:38;;;;;;;24.20;20.37;;;33.60;67.80;;;;;;1851857;76;21539;-86
2023/02/11 06:25:09;;;;;;;24.98;19.85;;;33.50;67.80;;;;;;1854739;76;21052;-86
2023/02/11 06:27:40;;;;;;;25.60;20.75;;;33.40;69.10;;;;;;1822545;77;21073;-86
2023/02/11 06:30:12;;;;;;;26.75;20.23;;;33.40;69.70;;;;;;1856624;76;21056;-85
2023/02/11 06:32:43;;;;;;;22.77;17.98;;;33.40;69.80;;;;;;1857347;76;21140;-86
2023/02/11 06:35:15;;;;;;;24.77;17.95;;;33.50;67.10;;;;;;1863327;76;21096;-85
2023/02/11 06:37:48;;;;;;;20.52;18.32;;;33.60;67.20;;;;;;1860325;76;21060;-86
2023/02/11 06:40:18;;;;;;;22.95;19.07;;;33.70;67.00;;;;;;1867398;75;21119;-85
2023/02/11 06:42:49;;;;;;;22.42;18.02;;;33.80;66.30;;;;;;1862021;76;21143;-86
2023/02/11 06:45:20;;;;;;;21.73;18.40;;;33.90;64.90;;;;;;1865976;76;21186;-85
2023/02/11 06:47:52;;;;;;;26.15;18.23;;;33.90;65.70;;;;;;1853097;76;21654;-88
2023/02/11 06:50:23;;;;;;;21.12;17.50;;;33.80;66.10;;;;;;1851721;76;21847;-86
2023/02/11 06:52:54;;;;;;;20.05;16.07;;;33.80;66.80;;;;;;1866823;75;21124;-86
2023/02/11 06:55:24;;;;;;;21.05;17.75;;;33.80;63.50;;;;;;1847462;76;21373;-88
2023/02/11 06:57:57;;;;;;;20.60;17.48;;;33.80;63.70;;;;;;1870821;75;21081;-88
2023/02/11 07:00:47;;;;;;;20.57;16.42;;;33.90;64.60;;;;;;1873560;75;21805;-88
2023/02/11 07:03:18;;;;;;;22.35;17.05;;;33.90;62.60;;;;;;1859086;76;21139;-88
2023/02/11 07:05:48;;;;;;;24.20;16.82;;;34.00;61.60;;;;;;1835753;77;21110;-89
2023/02/11 07:08:20;;;;;;;22.05;17.27;;;34.00;62.30;;;;;;1861768;75;21203;-89
2023/02/11 07:10:50;;;;;;;20.23;16.27;;;34.00;62.10;;;;;;1855824;76;21661;-88
2023/02/11 07:13:23;;;;;;;18.70;16.70;;;34.10;61.70;;;;;;1831294;76;21516;-88
2023/02/11 07:15:54;;;;;;;18.90;16.90;;;34.10;62.20;;;;;;1858265;75;21093;-87
2023/02/11 07:18:24;;;;;;;20.90;16.93;;;34.20;61.90;;;;;;1825925;77;21589;-88
2023/02/11 07:20:55;;;;;;;21.15;17.30;;;34.30;61.30;;;;;;1841481;76;21143;-88
2023/02/11 07:23:26;;;;;;;24.90;18.62;;;34.30;60.40;;;;;;1857684;75;21079;-88
2023/02/11 07:25:57;;;;;;;25.88;18.80;;;34.30;60.80;;;;;;1839022;76;21151;-88
2023/02/11 07:28:27;;;;;;;22.05;18.02;;;34.30;61.30;;;;;;1865975;75;21593;-87
2023/02/11 07:30:58;;;;;;;21.70;16.27;;;34.30;61.50;;;;;;1878597;75;21143;-86
2023/02/11 07:33:29;;;;;;;17.65;14.58;;;34.30;60.80;;;;;;1877606;75;21072;-88
2023/02/11 07:36:01;;;;;;;16.25;14.55;;;34.30;60.20;;;;;;1858243;76;21202;-88
2023/02/11 07:38:33;;;;;;;16.23;14.53;;;34.40;59.80;;;;;;1837610;77;21681;-87
2023/02/11 07:41:12;;;;;;;32.65;16.48;;;34.40;59.10;;;;;;1861563;75;21196;-86
2023/02/11 07:43:44;;;;;;;17.30;14.23;;;34.30;59.30;;;;;;1863455;76;21112;-88
2023/02/11 07:46:20;;;;;;;15.93;14.28;;;34.30;58.90;;;;;;1840529;76;21547;-85
2023/02/11 07:48:50;;;;;;;;;;;34.20;60.20;;;;;;1848271;76;21149;-85
2023/02/11 07:51:23;;;;;;;17.77;14.00;;;34.20;59.70;;;;;;1829078;77;20275;-85
2023/02/11 07:53:55;;;;;;;18.40;15.05;;;34.20;60.60;;;;;;1863575;75;21143;-84
2023/02/11 07:56:27;;;;;;;16.75;14.45;;;34.20;60.00;;;;;;1838412;76;21151;-86
2023/02/11 07:59:12;;;;;;;19.55;15.23;;;34.20;59.70;;;;;;1840678;76;21216;-85
2023/02/11 08:02:03;;;;;;;22.58;14.33;;;34.20;59.40;;;;;;1833238;76;21206;-86
2023/02/11 08:04:34;;;;;;;15.50;13.50;;;34.20;59.50;;;;;;1856223;75;21064;-86
2023/02/11 08:07:05;;;;;;;14.83;13.22;;;34.20;59.10;;;;;;1856060;75;21139;-86
2023/02/11 08:09:36;;;;;;;15.63;13.98;;;34.30;60.80;;;;;;1864191;75;21248;-88
2023/02/11 08:12:07;;;;;;;15.85;14.15;;;34.20;59.40;;;;;;1868075;75;21088;-85
2023/02/11 08:14:42;;;;;;;15.43;13.72;;;34.20;59.70;;;;;;1864323;75;21211;-87
2023/02/11 08:17:13;;;;;;;17.67;13.80;;;34.10;60.80;;;;;;1863899;75;21600;-87
2023/02/11 08:19:44;;;;;;;14.95;12.73;;;34.20;60.30;;;;;;1812180;77;21151;-85
2023/02/11 08:22:15;;;;;;;14.58;13.20;;;34.20;59.80;;;;;;1825470;77;21093;-75
2023/02/11 08:27:37;;;;;;;16.20;13.13;;;34.10;59.80;;;;;;1800058;78;21220;-76
2023/02/11 08:30:09;;;;;;;18.00;13.28;;;34.10;59.70;;;;;;1797826;78;21200;-75
2023/02/11 08:32:40;;;;;;;24.15;13.85;;;34.10;59.40;;;;;;1813772;77;21262;-76
2023/02/11 08:35:11;;;;;;;17.75;13.80;;;34.10;59.70;;;;;;1803595;77;21128;-77
2023/02/11 08:37:42;;;;;;;15.28;13.60;;;34.20;59.80;;;;;;1804818;77;21080;-73
2023/02/11 08:40:13;;;;;;;18.40;14.53;;;34.10;59.70;;;;;;1791118;78;21249;-74
2023/02/11 08:42:44;;;;;;;15.55;13.62;;;34.10;60.10;;;;;;1804392;78;21147;-74
2023/02/11 08:45:15;;;;;;;15.28;13.40;;;34.10;60.20;;;;;;1805905;78;21234;-72
2023/02/11 08:47:46;;;;;;;22.17;18.52;;;34.10;59.60;;;;;;1808050;78;21179;-74
2023/02/11 08:50:18;;;;;;;17.45;12.93;;;34.10;59.40;;;;;;1807460;77;21172;-76
2023/02/11 08:52:50;;;;;;;14.90;13.30;;;34.10;59.60;;;;;;1803848;77;21147;-74
2023/02/11 08:55:21;;;;;;;19.15;13.62;;;34.10;58.90;;;;;;1805715;77;21174;-75
2023/02/11 08:57:52;;;;;;;36.17;14.98;;;34.10;59.00;;;;;;1805002;78;21166;-76
2023/02/11 09:00:23;;;;;;;14.33;12.88;;;34.10;58.60;;;;;;1810719;78;21179;-77
2023/02/11 09:02:55;;;;;;;15.63;13.83;;;34.10;58.40;;;;;;1804113;78;21829;-76
2023/02/11 09:05:55;;;;;;;15.53;12.70;;;34.00;57.30;;;;;;1793006;78;21253;-75
2023/02/11 09:08:27;;;;;;;15.98;12.95;;;34.00;56.20;;;;;;1823129;77;21134;-75
2023/02/11 09:10:59;;;;;;;15.30;13.05;;;34.00;56.00;;;;;;1799177;79;21575;-77
2023/02/11 09:13:30;;;;;;;21.42;13.00;;;34.00;57.30;;;;;;1827744;77;21213;-76
2023/02/11 09:16:04;;;;;;;34.48;15.25;;;34.00;58.60;;;;;;1813306;77;21082;-77
2023/02/11 09:18:35;;;;;;;22.42;13.98;;;34.00;58.50;;;;;;1809780;78;21191;-74
2023/02/11 09:21:07;;;;;;;18.35;13.35;;;34.00;59.30;;;;;;1832229;77;21186;-75
2023/02/11 09:23:42;;;;;;;14.65;12.20;;;34.00;58.60;;;;;;1816264;77;21224;-76
2023/02/11 09:26:14;;;;;;;28.23;13.55;;;34.00;58.10;;;;;;1833179;76;21670;-75
2023/02/11 09:28:45;;;;;;;17.25;13.40;;;33.90;58.20;;;;;;1870990;76;21542;-75
2023/02/11 09:31:19;;;;;;;17.42;12.45;;;34.00;58.40;;;;;;1878859;76;21083;-74
2023/02/11 09:33:52;;;;;;;18.15;13.03;;;33.90;57.50;;;;;;1871533;75;21122;-75
2023/02/11 09:36:26;;;;;;;14.58;12.20;;;33.90;58.00;;;;;;1844189;76;21652;-75
2023/02/11 09:38:59;;;;;;;16.32;12.55;;;33.90;58.00;;;;;;1834865;77;21122;-74
2023/02/11 09:41:45;;;;;;;17.52;12.37;;;33.80;58.30;;;;;;1857640;76;21123;-75
2023/02/11 09:44:23;;;;;;;16.93;12.43;;;33.80;58.00;;;;;;1836445;76;21593;-74
2023/02/11 09:46:57;;;;;;;24.75;14.98;;;33.70;58.50;;;;;;1870057;75;21648;-75
2023/02/11 09:49:46;;;;;;;24.15;13.00;;;33.80;59.20;;;;;;1849730;76;21231;-74
2023/02/11 09:52:43;;;;;;;18.77;12.68;;;33.70;59.20;;;;;;1847962;76;21241;-75
2023/02/11 09:55:28;;;;;;;14.90;11.60;;;33.70;59.80;;;;;;1880396;75;21082;-75
2023/02/11 09:58:01;;;;;;;13.70;11.70;;;33.60;59.70;;;;;;1855895;75;21217;-74
2023/02/11 10:00:46;;;;;;;20.30;11.12;;;33.60;59.60;;;;;;1870850;76;21530;-73
2023/02/11 10:03:24;;;;;;;;;;;33.60;60.00;;;;;;1838214;76;21162;-73
2023/02/11 10:06:09;;;;;;;31.50;25.27;;;33.60;61.20;;;;;;1826397;77;20139;-74
2023/02/11 10:08:59;;;;;;;20.60;12.90;;;33.60;60.00;;;;;;1894731;75;21115;-73
2023/02/11 10:11:33;;;;;;;19.77;11.97;;;33.50;59.60;;;;;;1835766;77;21165;-74
2023/02/11 10:14:43;;;;;;;15.63;11.48;;;33.50;60.30;;;;;;1855420;76;21149;-74
2023/02/11 10:17:40;;;;;;;18.15;11.22;;;33.50;59.50;;;;;;1874103;75;21166;-73
2023/02/11 10:20:30;;;;;;;18.12;11.70;;;33.50;60.70;;;;;;1830616;77;21610;-74
2023/02/11 10:23:12;;;;;;;17.55;11.57;;;33.50;59.90;;;;;;1839329;76;21599;-75
2023/02/11 10:25:49;;;;;;;16.02;11.10;;;33.40;60.40;;;;;;1839083;76;21166;-75
2023/02/11 10:28:23;;;;;;;26.17;12.20;;;33.40;60.80;;;;;;1870225;75;21215;-75
2023/02/11 10:31:09;;;;;;;27.82;12.78;;;33.40;61.00;;;;;;1869972;75;21084;-76
2023/02/11 10:33:46;;;;;;;19.25;11.78;;;33.30;61.20;;;;;;1820206;77;21728;-77
2023/02/11 10:36:18;;;;;;;18.12;10.90;;;33.30;61.40;;;;;;1830070;77;21208;-77
2023/02/11 10:38:49;;;;;;;15.75;11.70;;;33.20;61.90;;;;;;1862686;75;21241;-75
2023/02/11 10:41:35;;;;;;;17.37;11.20;;;33.20;61.50;;;;;;1861270;75;21112;-76
2023/02/11 10:44:07;;;;;;;15.78;12.00;;;33.20;62.30;;;;;;1867421;76;21685;-77
2023/02/11 10:46:43;;;;;;;13.32;10.58;;;33.10;62.30;;;;;;1866509;75;21049;-77
2023/02/11 10:49:13;;;;;;;13.75;12.35;;;33.10;62.40;;;;;;1859899;75;21155;-78
2023/02/11 10:51:45;;;;;;;18.98;11.35;;;33.10;62.70;;;;;;1871203;75;21151;-79
2023/02/11 10:54:20;;;;;;;21.77;13.05;;;33.00;63.00;;;;;;1832809;76;21222;-75
2023/02/11 10:56:53;;;;;;;20.40;12.58;;;33.00;63.30;;;;;;1847535;76;21190;-77
2023/02/11 10:59:30;;;;;;;16.20;12.20;;;32.90;63.40;;;;;;1867280;75;21148;-75
2023/02/11 11:02:09;;;;;;;16.60;11.38;;;33.00;63.50;;;;;;1864080;76;21690;-76
2023/02/11 11:04:47;;;;;;;14.63;11.25;;;32.90;63.80;;;;;;1861873;75;21592;-75
2023/02/11 11:07:23;;;;;;;19.27;12.07;;;32.90;63.70;;;;;;1866448;75;21084;-76
2023/02/11 11:09:58;;;;;;;15.05;11.63;;;32.80;63.80;;;;;;1845086;76;21154;-75
2023/02/11 11:12:46;;;;;;;18.07;11.60;;;32.80;64.80;;;;;;1863023;75;21716;-75
2023/02/11 11:15:24;;;;;;;20.35;11.88;;;32.80;64.00;;;;;;1824265;77;21558;-75
2023/02/11 11:18:21;;;;;;;18.98;11.57;;;32.80;64.00;;;;;;1839439;76;21159;-76
2023/02/11 11:21:04;;;;;;;19.73;13.45;;;32.70;64.10;;;;;;1840091;76;21064;-75
2023/02/11 11:23:38;;;;;;;19.75;13.53;;;32.60;64.40;;;;;;1843561;76;21150;-76
2023/02/11 11:26:12;;;;;;;17.27;13.83;;;32.70;64.80;;;;;;1841713;76;21198;-75
2023/02/11 11:28:54;;;;;;;21.85;14.87;;;32.60;64.90;;;;;;1815115;77;21191;-75
2023/02/11 11:31:36;;;;;;;25.50;14.83;;;32.60;65.20;;;;;;1813536;77;21143;-75
2023/02/11 11:34:25;;;;;;;18.98;14.50;;;32.60;65.40;;;;;;1817880;77;21104;-76
2023/02/11 11:36:56;;;;;;;17.60;13.98;;;32.50;65.50;;;;;;1752700;80;21209;-74
2023/02/11 11:39:33;;;;;;;24.18;14.50;;;32.50;65.80;;;;;;1773944;78;21163;-74
2023/02/11 11:42:06;;;;;;;18.82;13.80;;;32.40;65.70;;;;;;1801456;78;21120;-74
2023/02/11 11:44:38;;;;;;;17.02;12.82;;;32.40;65.70;;;;;;1830392;77;21075;-75
2023/02/11 11:47:15;;;;;;;23.47;13.75;;;32.40;66.20;;;;;;1836641;77;21214;-76
2023/02/11 11:50:04;;;;;;;19.32;14.07;;;32.40;66.10;;;;;;1808208;78;22005;-75
2023/02/11 11:52:37;;;;;;;23.25;14.90;;;32.30;66.10;;;;;;1817438;77;21115;-75
2023/02/11 11:55:20;;;;;;;20.65;15.50;;;32.30;66.30;;;;;;1808656;77;21175;-76
2023/02/11 11:57:51;;;;;;;19.00;14.13;;;32.30;66.50;;;;;;1814265;77;21270;-75
2023/02/11 12:00:36;;;;;;;20.00;15.63;;;32.30;66.60;;;;;;1816280;77;21234;-74
2023/02/11 12:03:24;;;;;;;21.50;14.83;;;32.20;66.50;;;;;;1809071;77;21132;-87
2023/02/11 12:06:19;;;;;;;21.77;14.43;;;32.20;66.70;;;;;;1741367;78;21176;-85
2023/02/11 12:08:58;;;;;;;20.32;14.90;;;32.20;66.80;;;;;;1798922;77;21202;-85
2023/02/11 12:11:43;;;;;;;19.85;14.65;;;32.20;66.80;;;;;;1785549;78;21092;-85
2023/02/11 12:14:25;;;;;;;26.53;15.70;;;32.20;67.00;;;;;;1803011;77;21175;-88
2023/02/11 12:17:11;;;;;;;21.25;14.35;;;32.10;67.00;;;;;;1800652;78;21190;-86
2023/02/11 12:20:16;;;;;;;20.90;16.30;;;32.10;67.20;;;;;;1772520;78;21261;-87
2023/02/11 12:23:12;;;;;;;22.07;16.65;;;32.10;67.30;;;;;;1796988;78;21147;-86
2023/02/11 12:25:54;;;;;;;25.45;16.75;;;32.10;67.40;;;;;;1803870;77;21558;-84
2023/02/11 12:28:29;;;;;;;24.37;16.52;;;32.00;67.60;;;;;;1827806;76;21180;-86
2023/02/11 12:31:19;;;;;;;29.27;17.90;;;32.00;67.50;;;;;;1776637;79;21610;-88
2023/02/11 12:34:04;;;;;;;20.05;17.12;;;32.00;67.40;;;;;;1781281;79;21194;-86
2023/02/11 12:36:44;;;;;;;28.73;19.30;;;32.00;67.70;;;;;;1773801;81;21234;-88
2023/02/11 12:39:36;;;;;;;26.62;18.65;;;32.00;67.80;;;;;;1841420;78;21184;-87
2023/02/11 12:45:53;;;;;;;27.20;19.75;;;31.90;68.10;;;;;;1841832;78;21112;-86
2023/02/11 12:48:46;;;;;;;22.20;17.42;;;31.90;68.10;;;;;;1841859;78;21151;-86
2023/02/11 12:51:38;;;;;;;23.02;17.77;;;31.90;68.30;;;;;;1841761;78;21112;-86
2023/02/11 12:54:14;;;;;;;23.40;18.20;;;31.80;68.40;;;;;;1841047;77;21104;-85
2023/02/11 12:56:50;;;;;;;24.52;18.67;;;31.80;68.40;;;;;;1841674;78;21097;-86
2023/02/11 12:59:26;;;;;;;26.60;18.98;;;31.80;68.60;;;;;;1841461;78;21100;-86
2023/02/11 13:01:58;;;;;;;29.77;20.33;;;31.80;68.70;;;;;;1841490;78;21105;-85
2023/02/11 13:04:37;;;;;;;26.12;20.40;;;31.80;68.80;;;;;;1841528;78;21390;-86
2023/02/11 13:07:22;;;;;;;29.60;19.77;;;31.80;68.90;;;;;;1841427;78;21151;-85
2023/02/11 13:10:00;;;;;;;26.62;18.05;;;31.80;68.90;;;;;;1832619;78;21076;-85
2023/02/11 13:15:22;;;;;;;26.33;19.07;;;31.60;69.10;;;;;;1841888;78;21218;-84
2023/02/11 13:18:02;;;;;;;29.10;19.40;;;31.60;69.50;;;;;;1841961;77;21225;-85
2023/02/11 13:20:49;;;;;;;26.55;19.32;;;31.60;69.70;;;;;;1842981;78;21136;-83
2023/02/11 13:23:35;;;;;;;27.42;18.73;;;31.50;69.70;;;;;;1844804;77;21077;-85
2023/02/11 13:26:24;;;;;;;31.45;19.70;;;31.50;70.00;;;;;;1844509;77;21349;-85